sensor_id;sensor_type;location;lat;lon;timestamp;pressure;altitude;pressure_sealevel;temperature;humidity
23433;BME280;41331;45.412;10.992;2023-03-01T00:01:40;101401.88;;;6.54;57.47
23433;BME280;41331;45.412;10.992;2023-03-01T00:04:08;101394.81;;;6.63;56.96
23433;BME280;41331;45.412;10.992;2023-03-01T00:06:35;101397.75;;;6.66;56.27
23433;BME280;41331;45.412;10.992;2023-03-01T00:09:03;101400.50;;;6.61;56.91
23433;BME280;41331;45.412;10.992;2023-03-01T00:11:32;101388.53;;;6.67;56.37
23433;BME280;41331;45.412;10.992;2023-03-01T00:14:01;101390.22;;;6.63;56.59
23433;BME280;41331;45.412;10.992;2023-03-01T00:16:31;101393.78;;;6.54;57.15
23433;BME280;41331;45.412;10.992;2023-03-01T00:19:02;101392.72;;;6.44;56.94
23433;BME280;41331;45.412;10.992;2023-03-01T00:21:29;101389.47;;;6.42;57.52
23433;BME280;41331;45.412;10.992;2023-03-01T00:23:57;101380.84;;;6.40;56.82
23433;BME280;41331;45.412;10.992;2023-03-01T00:26:26;101376.00;;;6.32;57.67
23433;BME280;41331;45.412;10.992;2023-03-01T00:28:54;101369.88;;;6.11;57.97
23433;BME280;41331;45.412;10.992;2023-03-01T00:31:24;101371.78;;;6.01;58.44
23433;BME280;41331;45.412;10.992;2023-03-01T00:33:54;101367.47;;;6.00;59.15
23433;BME280;41331;45.412;10.992;2023-03-01T00:36:26;101364.50;;;5.96;58.98
23433;BME280;41331;45.412;10.992;2023-03-01T00:38:54;101362.63;;;5.91;58.93
23433;BME280;41331;45.412;10.992;2023-03-01T00:41:22;101362.09;;;5.79;59.92
23433;BME280;41331;45.412;10.992;2023-03-01T00:43:50;101364.81;;;5.64;60.35
23433;BME280;41331;45.412;10.992;2023-03-01T00:46:20;101356.47;;;5.55;60.82
23433;BME280;41331;45.412;10.992;2023-03-01T00:48:48;101359.97;;;5.56;60.59
23433;BME280;41331;45.412;10.992;2023-03-01T00:51:21;101356.16;;;5.67;60.26
23433;BME280;41331;45.412;10.992;2023-03-01T00:53:51;101357.00;;;5.57;61.10
23433;BME280;41331;45.412;10.992;2023-03-01T00:56:19;101366.97;;;5.52;61.77
23433;BME280;41331;45.412;10.992;2023-03-01T00:58:47;101351.06;;;5.45;62.40
23433;BME280;41331;45.412;10.992;2023-03-01T01:01:17;101353.50;;;5.31;62.32
23433;BME280;41331;45.412;10.992;2023-03-01T01:03:48;101353.78;;;5.25;63.36
23433;BME280;41331;45.412;10.992;2023-03-01T01:06:39;101347.00;;;5.17;62.74
23433;BME280;41331;45.412;10.992;2023-03-01T01:09:07;101340.28;;;5.30;62.23
23433;BME280;41331;45.412;10.992;2023-03-01T01:11:35;101343.25;;;5.23;61.92
23433;BME280;41331;45.412;10.992;2023-03-01T01:14:03;101345.69;;;5.30;62.07
23433;BME280;41331;45.412;10.992;2023-03-01T01:16:31;101331.91;;;5.26;61.49
23433;BME280;41331;45.412;10.992;2023-03-01T01:18:59;101322.72;;;5.12;62.36
23433;BME280;41331;45.412;10.992;2023-03-01T01:21:27;101319.50;;;5.20;62.52
23433;BME280;41331;45.412;10.992;2023-03-01T01:23:58;101319.78;;;5.24;62.59
23433;BME280;41331;45.412;10.992;2023-03-01T01:26:28;101302.22;;;5.21;62.58
23433;BME280;41331;45.412;10.992;2023-03-01T01:28:57;101309.00;;;5.03;62.96
23433;BME280;41331;45.412;10.992;2023-03-01T01:31:26;101303.84;;;4.86;64.52
23433;BME280;41331;45.412;10.992;2023-03-01T01:33:55;101302.22;;;4.90;64.27
23433;BME280;41331;45.412;10.992;2023-03-01T01:36:23;101294.94;;;4.91;65.36
23433;BME280;41331;45.412;10.992;2023-03-01T01:38:51;101290.63;;;4.85;65.52
23433;BME280;41331;45.412;10.992;2023-03-01T01:41:18;101287.13;;;4.94;65.19
23433;BME280;41331;45.412;10.992;2023-03-01T01:46:40;101282.53;;;4.90;64.74
23433;BME280;41331;45.412;10.992;2023-03-01T01:49:30;101273.91;;;4.98;63.97
23433;BME280;41331;45.412;10.992;2023-03-01T01:52:16;101271.47;;;4.97;64.82
23433;BME280;41331;45.412;10.992;2023-03-01T01:55:08;101269.31;;;4.78;65.53
23433;BME280;41331;45.412;10.992;2023-03-01T01:57:44;101267.44;;;4.63;65.67
23433;BME280;41331;45.412;10.992;2023-03-01T02:00:22;101271.22;;;4.67;65.64
23433;BME280;41331;45.412;10.992;2023-03-01T02:02:53;101264.72;;;4.79;66.10
23433;BME280;41331;45.412;10.992;2023-03-01T02:05:28;101267.72;;;4.77;66.77
23433;BME280;41331;45.412;10.992;2023-03-01T02:07:59;101263.38;;;4.76;67.09
23433;BME280;41331;45.412;10.992;2023-03-01T02:10:28;101257.97;;;4.66;66.72
23433;BME280;41331;45.412;10.992;2023-03-01T02:12:56;101258.53;;;4.73;67.23
23433;BME280;41331;45.412;10.992;2023-03-01T02:15:24;101253.66;;;4.70;67.59
23433;BME280;41331;45.412;10.992;2023-03-01T02:17:54;101248.00;;;4.72;67.59
23433;BME280;41331;45.412;10.992;2023-03-01T02:20:34;101245.06;;;4.68;68.18
23433;BME280;41331;45.412;10.992;2023-03-01T02:23:03;101236.94;;;4.58;69.22
23433;BME280;41331;45.412;10.992;2023-03-01T02:25:47;101237.47;;;4.60;70.18
23433;BME280;41331;45.412;10.992;2023-03-01T02:28:29;101230.19;;;4.60;71.57
23433;BME280;41331;45.412;10.992;2023-03-01T02:30:57;101236.69;;;4.59;72.51
23433;BME280;41331;45.412;10.992;2023-03-01T02:33:46;101235.06;;;4.48;73.51
23433;BME280;41331;45.412;10.992;2023-03-01T02:36:19;101222.66;;;4.52;73.81
23433;BME280;41331;45.412;10.992;2023-03-01T02:38:50;101222.13;;;4.65;73.83
23433;BME280;41331;45.412;10.992;2023-03-01T02:41:20;101221.88;;;4.67;73.83
23433;BME280;41331;45.412;10.992;2023-03-01T02:43:48;101218.31;;;4.56;74.57
23433;BME280;41331;45.412;10.992;2023-03-01T02:46:17;101218.59;;;4.60;74.63
23433;BME280;41331;45.412;10.992;2023-03-01T02:48:46;101205.69;;;4.62;74.82
23433;BME280;41331;45.412;10.992;2023-03-01T02:54:17;101201.09;;;4.57;75.38
23433;BME280;41331;45.412;10.992;2023-03-01T02:56:48;101191.66;;;4.55;75.07
23433;BME280;41331;45.412;10.992;2023-03-01T02:59:21;101187.06;;;4.55;75.57
23433;BME280;41331;45.412;10.992;2023-03-01T03:01:50;101184.38;;;4.60;74.82
23433;BME280;41331;45.412;10.992;2023-03-01T03:04:18;101182.47;;;4.61;74.53
23433;BME280;41331;45.412;10.992;2023-03-01T03:06:49;101182.22;;;4.67;74.05
23433;BME280;41331;45.412;10.992;2023-03-01T03:09:18;101181.41;;;4.62;73.49
23433;BME280;41331;45.412;10.992;2023-03-01T03:11:46;101179.78;;;4.66;73.40
23433;BME280;41331;45.412;10.992;2023-03-01T03:14:16;101179.75;;;4.76;74.51
23433;BME280;41331;45.412;10.992;2023-03-01T03:16:49;101175.47;;;4.75;74.26
23433;BME280;41331;45.412;10.992;2023-03-01T03:19:18;101183.03;;;4.78;74.93
23433;BME280;41331;45.412;10.992;2023-03-01T03:21:47;101183.56;;;4.65;75.64
23433;BME280;41331;45.412;10.992;2023-03-01T03:24:14;101184.13;;;4.67;75.67
23433;BME280;41331;45.412;10.992;2023-03-01T03:26:41;101178.16;;;4.65;77.34
23433;BME280;41331;45.412;10.992;2023-03-01T03:29:09;101174.13;;;4.73;76.48
23433;BME280;41331;45.412;10.992;2023-03-01T03:31:36;101178.44;;;4.63;77.15
23433;BME280;41331;45.412;10.992;2023-03-01T03:34:03;101179.53;;;4.52;77.55
23433;BME280;41331;45.412;10.992;2023-03-01T03:36:31;101176.28;;;4.55;77.61
23433;BME280;41331;45.412;10.992;2023-03-01T03:38:58;101176.28;;;4.65;77.32
23433;BME280;41331;45.412;10.992;2023-03-01T03:41:28;101167.66;;;4.68;77.76
23433;BME280;41331;45.412;10.992;2023-03-01T03:43:55;101172.50;;;4.72;77.44
23433;BME280;41331;45.412;10.992;2023-03-01T03:46:23;101173.84;;;4.69;77.76
23433;BME280;41331;45.412;10.992;2023-03-01T03:48:50;101170.88;;;4.50;78.75
23433;BME280;41331;45.412;10.992;2023-03-01T03:51:18;101179.25;;;4.69;77.96
23433;BME280;41331;45.412;10.992;2023-03-01T03:53:45;101177.09;;;4.51;78.66
23433;BME280;41331;45.412;10.992;2023-03-01T03:56:13;101171.97;;;4.29;79.55
23433;BME280;41331;45.412;10.992;2023-03-01T03:58:40;101171.44;;;4.37;80.15
23433;BME280;41331;45.412;10.992;2023-03-01T04:01:08;101178.44;;;4.38;80.12
23433;BME280;41331;45.412;10.992;2023-03-01T04:03:35;101171.97;;;4.39;79.06
23433;BME280;41331;45.412;10.992;2023-03-01T04:06:03;101165.78;;;4.59;79.44
23433;BME280;41331;45.412;10.992;2023-03-01T04:08:31;101171.16;;;4.54;79.52
23433;BME280;41331;45.412;10.992;2023-03-01T04:11:03;101170.06;;;4.60;79.03
23433;BME280;41331;45.412;10.992;2023-03-01T04:13:54;101160.38;;;4.49;80.33
23433;BME280;41331;45.412;10.992;2023-03-01T04:16:22;101160.09;;;4.55;80.26
23433;BME280;41331;45.412;10.992;2023-03-01T04:18:50;101165.25;;;4.57;80.96
23433;BME280;41331;45.412;10.992;2023-03-01T04:21:19;101146.91;;;4.54;80.57
23433;BME280;41331;45.412;10.992;2023-03-01T04:23:47;101161.47;;;4.58;79.89
23433;BME280;41331;45.412;10.992;2023-03-01T04:26:15;101157.69;;;4.59;79.94
23433;BME280;41331;45.412;10.992;2023-03-01T04:28:42;101157.97;;;4.62;80.43
23433;BME280;41331;45.412;10.992;2023-03-01T04:31:15;101149.88;;;4.47;80.97
23433;BME280;41331;45.412;10.992;2023-03-01T04:33:48;101156.06;;;4.58;81.12
23433;BME280;41331;45.412;10.992;2023-03-01T04:36:17;101150.94;;;4.46;81.04
23433;BME280;41331;45.412;10.992;2023-03-01T04:38:45;101151.50;;;4.43;79.84
23433;BME280;41331;45.412;10.992;2023-03-01T04:41:17;101155.25;;;4.57;80.02
23433;BME280;41331;45.412;10.992;2023-03-01T04:43:48;101149.06;;;4.62;79.19
23433;BME280;41331;45.412;10.992;2023-03-01T04:46:18;101153.63;;;4.51;78.88
23433;BME280;41331;45.412;10.992;2023-03-01T04:48:49;101156.31;;;4.72;78.40
23433;BME280;41331;45.412;10.992;2023-03-01T04:51:17;101156.31;;;4.66;78.34
23433;BME280;41331;45.412;10.992;2023-03-01T04:53:45;101148.22;;;4.51;78.51
23433;BME280;41331;45.412;10.992;2023-03-01T04:56:13;101161.97;;;4.65;78.25
23433;BME280;41331;45.412;10.992;2023-03-01T04:58:41;101155.25;;;4.57;77.99
23433;BME280;41331;45.412;10.992;2023-03-01T05:01:13;101157.94;;;4.67;78.33
23433;BME280;41331;45.412;10.992;2023-03-01T05:03:45;101159.56;;;4.63;78.81
23433;BME280;41331;45.412;10.992;2023-03-01T05:06:14;101152.56;;;4.52;80.01
23433;BME280;41331;45.412;10.992;2023-03-01T05:08:42;101158.75;;;4.63;79.29
23433;BME280;41331;45.412;10.992;2023-03-01T05:11:10;101153.63;;;4.56;79.93
23433;BME280;41331;45.412;10.992;2023-03-01T05:13:39;101147.16;;;4.62;78.97
23433;BME280;41331;45.412;10.992;2023-03-01T05:16:07;101142.81;;;4.77;78.58
23433;BME280;41331;45.412;10.992;2023-03-01T05:18:39;101142.03;;;4.66;79.21
23433;BME280;41331;45.412;10.992;2023-03-01T05:21:12;101141.47;;;4.79;78.46
23433;BME280;41331;45.412;10.992;2023-03-01T05:23:43;101142.81;;;4.77;79.01
23433;BME280;41331;45.412;10.992;2023-03-01T05:26:13;101140.13;;;4.77;78.44
23433;BME280;41331;45.412;10.992;2023-03-01T05:28:55;101141.44;;;4.94;78.16
23433;BME280;41331;45.412;10.992;2023-03-01T05:31:26;101143.88;;;4.96;78.00
23433;BME280;41331;45.412;10.992;2023-03-01T05:33:54;101139.53;;;5.00;78.07
23433;BME280;41331;45.412;10.992;2023-03-01T05:36:21;101146.84;;;5.00;78.55
23433;BME280;41331;45.412;10.992;2023-03-01T05:38:49;101153.31;;;4.99;77.75
23433;BME280;41331;45.412;10.992;2023-03-01T05:41:16;101149.81;;;4.93;78.60
23433;BME280;41331;45.412;10.992;2023-03-01T05:43:46;101152.78;;;4.91;79.01
23433;BME280;41331;45.412;10.992;2023-03-01T05:46:13;101143.63;;;4.92;79.25
23433;BME280;41331;45.412;10.992;2023-03-01T05:48:42;101141.44;;;4.94;80.25
23433;BME280;41331;45.412;10.992;2023-03-01T05:51:09;101138.22;;;5.03;79.52
23433;BME280;41331;45.412;10.992;2023-03-01T05:53:37;101139.53;;;5.05;79.69
23433;BME280;41331;45.412;10.992;2023-03-01T05:56:04;101136.56;;;4.97;80.42
23433;BME280;41331;45.412;10.992;2023-03-01T05:58:33;101136.06;;;4.94;80.00
23433;BME280;41331;45.412;10.992;2023-03-01T06:01:00;101139.81;;;4.99;81.12
23433;BME280;41331;45.412;10.992;2023-03-01T06:03:27;101147.66;;;4.90;81.92
23433;BME280;41331;45.412;10.992;2023-03-01T06:06:14;101150.34;;;4.95;81.74
23433;BME280;41331;45.412;10.992;2023-03-01T06:08:41;101145.22;;;4.93;81.98
23433;BME280;41331;45.412;10.992;2023-03-01T06:11:09;101147.34;;;5.07;81.98
23433;BME280;41331;45.412;10.992;2023-03-01T06:13:36;101139.22;;;5.17;81.43
23433;BME280;41331;45.412;10.992;2023-03-01T06:16:07;101144.09;;;5.15;82.20
23433;BME280;41331;45.412;10.992;2023-03-01T06:18:36;101154.59;;;5.22;81.75
23433;BME280;41331;45.412;10.992;2023-03-01T06:21:04;101164.03;;;5.29;80.36
23433;BME280;41331;45.412;10.992;2023-03-01T06:23:32;101154.81;;;5.35;80.05
23433;BME280;41331;45.412;10.992;2023-03-01T06:26:00;101148.41;;;5.16;80.62
23433;BME280;41331;45.412;10.992;2023-03-01T06:28:31;101137.59;;;5.21;79.37
23433;BME280;41331;45.412;10.992;2023-03-01T06:30:59;101145.16;;;5.19;79.29
23433;BME280;41331;45.412;10.992;2023-03-01T06:33:26;101134.84;;;5.31;79.44
23433;BME280;41331;45.412;10.992;2023-03-01T06:35:56;101143.44;;;5.49;78.55
23433;BME280;41331;45.412;10.992;2023-03-01T06:38:24;101139.44;;;5.36;78.42
23433;BME280;41331;45.412;10.992;2023-03-01T06:40:54;101130.78;;;5.39;77.35
23433;BME280;41331;45.412;10.992;2023-03-01T06:43:22;101134.63;;;5.23;77.36
23433;BME280;41331;45.412;10.992;2023-03-01T06:45:50;101123.03;;;5.27;77.34
23433;BME280;41331;45.412;10.992;2023-03-01T06:48:18;101124.09;;;5.21;77.73
23433;BME280;41331;45.412;10.992;2023-03-01T06:50:45;101126.16;;;5.44;76.85
23433;BME280;41331;45.412;10.992;2023-03-01T06:53:12;101133.16;;;5.51;76.09
23433;BME280;41331;45.412;10.992;2023-03-01T06:55:40;101139.66;;;5.50;76.63
23433;BME280;41331;45.412;10.992;2023-03-01T06:58:08;101134.84;;;5.36;76.80
23433;BME280;41331;45.412;10.992;2023-03-01T07:00:36;101144.25;;;5.44;76.74
23433;BME280;41331;45.412;10.992;2023-03-01T07:03:03;101135.38;;;5.43;76.90
23433;BME280;41331;45.412;10.992;2023-03-01T07:05:33;101144.69;;;5.66;76.69
23433;BME280;41331;45.412;10.992;2023-03-01T07:08:00;101136.88;;;5.65;76.07
23433;BME280;41331;45.412;10.992;2023-03-01T07:10:29;101136.81;;;5.75;75.67
23433;BME280;41331;45.412;10.992;2023-03-01T07:12:57;101127.81;;;5.95;75.06
23433;BME280;41331;45.412;10.992;2023-03-01T07:15:26;101122.38;;;6.00;75.45
23433;BME280;41331;45.412;10.992;2023-03-01T07:17:54;101127.84;;;5.85;74.95
23433;BME280;41331;45.412;10.992;2023-03-01T07:20:21;101128.63;;;5.90;74.99
23433;BME280;41331;45.412;10.992;2023-03-01T07:22:53;101130.31;;;6.26;74.65
23433;BME280;41331;45.412;10.992;2023-03-01T07:25:20;101121.94;;;6.22;73.73
23433;BME280;41331;45.412;10.992;2023-03-01T07:27:51;101125.66;;;5.87;74.98
23433;BME280;41331;45.412;10.992;2023-03-01T07:30:22;101128.22;;;5.68;75.96
23433;BME280;41331;45.412;10.992;2023-03-01T07:32:56;101132.00;;;5.62;75.84
23433;BME280;41331;45.412;10.992;2023-03-01T07:35:27;101128.16;;;5.78;75.93
23433;BME280;41331;45.412;10.992;2023-03-01T07:37:55;101118.09;;;5.89;74.47
23433;BME280;41331;45.412;10.992;2023-03-01T07:40:23;101125.13;;;5.95;72.17
23433;BME280;41331;45.412;10.992;2023-03-01T07:42:55;101122.66;;;6.38;69.96
23433;BME280;41331;45.412;10.992;2023-03-01T07:45:22;101125.06;;;6.39;69.88
23433;BME280;41331;45.412;10.992;2023-03-01T07:47:51;101103.44;;;6.05;69.12
23433;BME280;41331;45.412;10.992;2023-03-01T07:50:19;101087.72;;;6.07;69.52
23433;BME280;41331;45.412;10.992;2023-03-01T07:52:47;101096.72;;;6.32;67.99
23433;BME280;41331;45.412;10.992;2023-03-01T07:55:16;101094.47;;;6.44;67.80
23433;BME280;41331;45.412;10.992;2023-03-01T07:57:43;101089.06;;;6.73;67.02
23433;BME280;41331;45.412;10.992;2023-03-01T08:00:12;101078.28;;;6.68;67.54
23433;BME280;41331;45.412;10.992;2023-03-01T08:02:40;101084.09;;;6.80;67.50
23433;BME280;41331;45.412;10.992;2023-03-01T08:05:09;101080.19;;;6.38;69.04
23433;BME280;41331;45.412;10.992;2023-03-01T08:07:37;101073.72;;;6.63;69.27
23433;BME280;41331;45.412;10.992;2023-03-01T08:10:05;101066.44;;;6.88;68.20
23433;BME280;41331;45.412;10.992;2023-03-01T08:12:32;101069.38;;;7.34;66.11
23433;BME280;41331;45.412;10.992;2023-03-01T08:15:00;101062.81;;;7.40;66.24
23433;BME280;41331;45.412;10.992;2023-03-01T08:17:27;101055.75;;;7.77;64.03
23433;BME280;41331;45.412;10.992;2023-03-01T08:19:54;101048.66;;;7.81;63.87
23433;BME280;41331;45.412;10.992;2023-03-01T08:22:22;101052.44;;;8.64;61.85
23433;BME280;41331;45.412;10.992;2023-03-01T08:24:49;101044.19;;;9.24;58.92
23433;BME280;41331;45.412;10.992;2023-03-01T08:27:17;101044.41;;;9.86;56.92
23433;BME280;41331;45.412;10.992;2023-03-01T08:29:44;101046.13;;;8.96;57.67
23433;BME280;41331;45.412;10.992;2023-03-01T08:32:11;101050.44;;;8.97;58.63
23433;BME280;41331;45.412;10.992;2023-03-01T08:34:39;101044.47;;;8.40;60.46
23433;BME280;41331;45.412;10.992;2023-03-01T08:37:09;101049.59;;;8.42;61.24
23433;BME280;41331;45.412;10.992;2023-03-01T08:39:36;101048.53;;;8.70;60.79
23433;BME280;41331;45.412;10.992;2023-03-01T08:42:04;101051.13;;;8.62;60.44
23433;BME280;41331;45.412;10.992;2023-03-01T08:44:31;101047.97;;;8.41;62.13
23433;BME280;41331;45.412;10.992;2023-03-01T08:46:59;101051.06;;;8.01;63.09
23433;BME280;41331;45.412;10.992;2023-03-01T08:49:27;101044.13;;;7.76;64.94
23433;BME280;41331;45.412;10.992;2023-03-01T08:51:54;101027.16;;;7.52;65.42
23433;BME280;41331;45.412;10.992;2023-03-01T08:54:24;101039.59;;;7.34;66.61
23433;BME280;41331;45.412;10.992;2023-03-01T08:56:52;101028.78;;;7.53;67.15
23433;BME280;41331;45.412;10.992;2023-03-01T08:59:19;101020.94;;;7.51;69.03
23433;BME280;41331;45.412;10.992;2023-03-01T09:01:46;101018.28;;;7.84;69.63
23433;BME280;41331;45.412;10.992;2023-03-01T09:04:15;101011.91;;;8.08;70.29
23433;BME280;41331;45.412;10.992;2023-03-01T09:06:46;101013.84;;;8.21;69.33
23433;BME280;41331;45.412;10.992;2023-03-01T09:09:15;101017.53;;;8.11;68.52
23433;BME280;41331;45.412;10.992;2023-03-01T09:11:44;101009.97;;;7.94;69.67
23433;BME280;41331;45.412;10.992;2023-03-01T09:14:14;101012.13;;;8.11;67.33
23433;BME280;41331;45.412;10.992;2023-03-01T09:16:41;101008.88;;;7.95;67.00
23433;BME280;41331;45.412;10.992;2023-03-01T09:19:09;101000.81;;;7.90;66.15
23433;BME280;41331;45.412;10.992;2023-03-01T09:21:37;101003.75;;;7.94;65.16
23433;BME280;41331;45.412;10.992;2023-03-01T09:24:14;100996.97;;;8.10;63.77
23433;BME280;41331;45.412;10.992;2023-03-01T09:26:42;101001.06;;;8.08;62.85
23433;BME280;41331;45.412;10.992;2023-03-01T09:29:09;101001.91;;;8.22;62.65
23433;BME280;41331;45.412;10.992;2023-03-01T09:31:37;101003.56;;;8.37;61.53
23433;BME280;41331;45.412;10.992;2023-03-01T09:34:05;101001.13;;;8.35;59.53
23433;BME280;41331;45.412;10.992;2023-03-01T09:36:33;101000.53;;;8.24;58.82
23433;BME280;41331;45.412;10.992;2023-03-01T09:39:01;100989.75;;;8.19;58.94
23433;BME280;41331;45.412;10.992;2023-03-01T09:41:42;100986.16;;;8.24;59.19
23433;BME280;41331;45.412;10.992;2023-03-01T09:44:27;100984.84;;;8.35;58.87
23433;BME280;41331;45.412;10.992;2023-03-01T09:46:59;100968.81;;;8.52;59.04
23433;BME280;41331;45.412;10.992;2023-03-01T09:49:36;100975.66;;;8.50;59.44
23433;BME280;41331;45.412;10.992;2023-03-01T09:54:43;100963.69;;;8.65;62.85
23433;BME280;41331;45.412;10.992;2023-03-01T10:05:24;100946.19;;;8.43;63.88
23433;BME280;41331;45.412;10.992;2023-03-01T10:10:43;100956.47;;;8.00;65.01
23433;BME280;41331;45.412;10.992;2023-03-01T10:13:23;100961.22;;;8.22;64.26
23433;BME280;41331;45.412;10.992;2023-03-01T10:15:57;100965.09;;;8.02;64.43
23433;BME280;41331;45.412;10.992;2023-03-01T10:18:31;100960.16;;;8.37;63.80
23433;BME280;41331;45.412;10.992;2023-03-01T10:21:02;100964.09;;;8.44;63.37
23433;BME280;41331;45.412;10.992;2023-03-01T10:23:37;100958.97;;;8.43;62.67
23433;BME280;41331;45.412;10.992;2023-03-01T10:31:27;100952.31;;;8.35;64.86
23433;BME280;41331;45.412;10.992;2023-03-01T10:34:19;100948.22;;;8.38;65.52
23433;BME280;41331;45.412;10.992;2023-03-01T10:36:50;100941.97;;;8.37;65.78
23433;BME280;41331;45.412;10.992;2023-03-01T10:39:20;100940.47;;;8.72;65.39
23433;BME280;41331;45.412;10.992;2023-03-01T10:42:05;100927.53;;;9.05;64.61
23433;BME280;41331;45.412;10.992;2023-03-01T10:50:02;100929.75;;;9.03;63.98
23433;BME280;41331;45.412;10.992;2023-03-01T10:52:36;100929.63;;;9.08;64.03
23433;BME280;41331;45.412;10.992;2023-03-01T10:55:28;100924.31;;;9.03;63.88
23433;BME280;41331;45.412;10.992;2023-03-01T10:58:18;100926.88;;;9.00;63.30
23433;BME280;41331;45.412;10.992;2023-03-01T11:00:58;100930.03;;;9.16;63.45
23433;BME280;41331;45.412;10.992;2023-03-01T11:03:37;100928.66;;;9.04;63.43
23433;BME280;41331;45.412;10.992;2023-03-01T11:06:20;100919.94;;;8.94;63.47
23433;BME280;41331;45.412;10.992;2023-03-01T11:08:49;100920.84;;;8.89;63.83
23433;BME280;41331;45.412;10.992;2023-03-01T11:11:32;100932.75;;;9.16;62.61
23433;BME280;41331;45.412;10.992;2023-03-01T11:14:12;100929.88;;;9.34;62.70
23433;BME280;41331;45.412;10.992;2023-03-01T11:17:05;100928.91;;;9.17;60.58
23433;BME280;41331;45.412;10.992;2023-03-01T11:19:38;100929.47;;;9.05;61.52
23433;BME280;41331;45.412;10.992;2023-03-01T11:22:16;100931.06;;;9.06;60.71
23433;BME280;41331;45.412;10.992;2023-03-01T11:24:48;100938.22;;;9.02;60.97
23433;BME280;41331;45.412;10.992;2023-03-01T11:27:37;100946.09;;;8.90;60.08
23433;BME280;41331;45.412;10.992;2023-03-01T11:30:15;100946.47;;;8.83;59.99
23433;BME280;41331;45.412;10.992;2023-03-01T11:33:35;100944.38;;;8.94;60.00
23433;BME280;41331;45.412;10.992;2023-03-01T11:35:37;100955.41;;;8.97;60.00
23433;BME280;41331;45.412;10.992;2023-03-01T11:38:24;100953.72;;;8.88;59.72
23433;BME280;41331;45.412;10.992;2023-03-01T12:06:38;100952.81;;;9.28;67.63
23433;BME280;41331;45.412;10.992;2023-03-01T12:23:33;100950.41;;;9.27;69.04
23433;BME280;41331;45.412;10.992;2023-03-01T12:40:24;100953.88;;;9.19;72.37
23433;BME280;41331;45.412;10.992;2023-03-01T12:45:39;100943.22;;;9.08;71.75
23433;BME280;41331;45.412;10.992;2023-03-01T12:50:54;100959.13;;;9.01;71.87
23433;BME280;41331;45.412;10.992;2023-03-01T12:53:29;100935.81;;;9.00;71.17
23433;BME280;41331;45.412;10.992;2023-03-01T12:56:02;100935.06;;;9.08;71.94
23433;BME280;41331;45.412;10.992;2023-03-01T13:01:35;100913.06;;;9.32;71.95
23433;BME280;41331;45.412;10.992;2023-03-01T13:09:58;100907.38;;;9.43;71.75
23433;BME280;41331;45.412;10.992;2023-03-01T13:17:51;100914.25;;;9.40;71.91
23433;BME280;41331;45.412;10.992;2023-03-01T13:20:34;100908.81;;;9.40;68.04
23433;BME280;41331;45.412;10.992;2023-03-01T13:26:15;100906.03;;;9.31;67.34
23433;BME280;41331;45.412;10.992;2023-03-01T13:33:47;100894.00;;;9.24;64.43
23433;BME280;41331;45.412;10.992;2023-03-01T13:38:55;100892.09;;;9.24;65.11
23433;BME280;41331;45.412;10.992;2023-03-01T13:46:50;100888.50;;;8.79;70.65
23433;BME280;41331;45.412;10.992;2023-03-01T13:49:21;100894.72;;;8.79;71.03
23433;BME280;41331;45.412;10.992;2023-03-01T13:51:50;100882.69;;;8.72;71.74
23433;BME280;41331;45.412;10.992;2023-03-01T13:54:29;100890.03;;;8.71;71.89
23433;BME280;41331;45.412;10.992;2023-03-01T13:56:58;100898.41;;;8.97;71.44
23433;BME280;41331;45.412;10.992;2023-03-01T13:59:26;100884.31;;;9.09;69.32
23433;BME280;41331;45.412;10.992;2023-03-01T14:02:00;100894.75;;;9.02;67.01
23433;BME280;41331;45.412;10.992;2023-03-01T14:04:32;100906.25;;;8.99;69.47
23433;BME280;41331;45.412;10.992;2023-03-01T14:07:23;100898.66;;;8.73;72.74
23433;BME280;41331;45.412;10.992;2023-03-01T14:10:02;100905.91;;;8.64;73.75
23433;BME280;41331;45.412;10.992;2023-03-01T14:12:41;100908.63;;;8.64;76.04
23433;BME280;41331;45.412;10.992;2023-03-01T14:15:19;100918.16;;;8.48;77.91
23433;BME280;41331;45.412;10.992;2023-03-01T14:20:42;100918.44;;;8.32;80.10
23433;BME280;41331;45.412;10.992;2023-03-01T14:23:17;100907.69;;;8.27;81.67
23433;BME280;41331;45.412;10.992;2023-03-01T14:25:51;100914.03;;;8.23;82.04
23433;BME280;41331;45.412;10.992;2023-03-01T14:28:23;100914.22;;;8.13;84.05
23433;BME280;41331;45.412;10.992;2023-03-01T14:30:57;100910.59;;;8.17;85.19
23433;BME280;41331;45.412;10.992;2023-03-01T14:33:35;100901.88;;;8.20;86.56
23433;BME280;41331;45.412;10.992;2023-03-01T14:36:11;100914.09;;;7.90;86.37
23433;BME280;41331;45.412;10.992;2023-03-01T14:38:44;100919.31;;;7.87;89.27
23433;BME280;41331;45.412;10.992;2023-03-01T14:41:18;100912.28;;;7.86;90.62
23433;BME280;41331;45.412;10.992;2023-03-01T14:43:57;100903.47;;;7.94;91.13
23433;BME280;41331;45.412;10.992;2023-03-01T14:46:35;100914.63;;;8.06;90.42
23433;BME280;41331;45.412;10.992;2023-03-01T14:49:16;100903.09;;;8.14;89.00
23433;BME280;41331;45.412;10.992;2023-03-01T14:51:53;100903.66;;;7.97;89.33
23433;BME280;41331;45.412;10.992;2023-03-01T14:54:31;100900.75;;;7.94;88.31
23433;BME280;41331;45.412;10.992;2023-03-01T14:57:03;100902.47;;;8.03;88.20
23433;BME280;41331;45.412;10.992;2023-03-01T14:59:33;100902.75;;;8.02;89.43
23433;BME280;41331;45.412;10.992;2023-03-01T15:02:04;100896.72;;;7.91;89.38
23433;BME280;41331;45.412;10.992;2023-03-01T15:04:31;100901.66;;;7.89;89.52
23433;BME280;41331;45.412;10.992;2023-03-01T15:07:00;100890.09;;;7.97;88.19
23433;BME280;41331;45.412;10.992;2023-03-01T15:09:34;100895.94;;;7.91;88.90
23433;BME280;41331;45.412;10.992;2023-03-01T15:14:55;100888.91;;;7.90;89.53
23433;BME280;41331;45.412;10.992;2023-03-01T15:17:37;100894.44;;;7.98;90.16